Coral Leaf — PHNI — position and weather

sailwx.info

Track history (hours):
 
Tides and Currents Weather Stations Pressure Air Temp Water Temp Dewpoint Dewpoint Depression Visibility Wind Speed Wind Dir Waves Ship Positions

Coral Leaf

Last reported at 2014-Jul-30 00:33 UTC. Time now 2014-Jul-30 01:01 UTC.
Position N 57°55' E 011°38'.

Length 108 m; draft 6.6 m.

Type: Ship (hazmat cat D). MMSI: 244036000.

Date/timePositionNaut miles runAvg speedWind from/ knotsBaromVisibWave heightAir tempDewpointWater temp
2014-Jul-30 00:33N 57°55' E 011°38'1010.1
2014-Jul-29 23:33N 57°51' E 011°22'1413.8
2014-Jul-29 22:33N 57°52' E 010°56'1414.3
2014-Jul-29 21:33N 57°52' E 010°29'1514.1
2014-Jul-29 20:29N 57°52' E 010°01'1313.7
2014-Jul-29 19:34N 57°51' E 009°37'37413.8
2014-Jul-28 16:27N 54°53' W 000°17'1514.2
2014-Jul-28 15:23N 54°46' W 000°42'1113.7
2014-Jul-28 14:33N 54°42' W 000°59'9 9.0
2014-Jul-28 13:33N 54°36' W 001°11'0 0.0
2014-Jul-28 12:07N 54°36' W 001°11'0 0.0
2014-Jul-28 11:13N 54°36' W 001°11'0 0.0
2014-Jul-28 10:25N 54°36' W 001°11'0 0.0
2014-Jul-28 09:31N 54°36' W 001°11'0 0.0
2014-Jul-28 07:31N 54°36' W 001°11'3 0.1
2014-Jul-27 13:08N 54°38' W 001°09'711.1
2014-Jul-27 12:27N 54°40' W 000°57'1314.3
2014-Jul-27 11:33N 54°40' W 000°34'1414.3
2014-Jul-27 10:33N 54°39' W 000°10'1414.0
2014-Jul-27 09:33N 54°38' E 000°14'1413.6
2014-Jul-27 08:32N 54°37' E 000°38'8413.9
2014-Jul-27 02:32N 54°28' E 003°01'3815.8
2014-Jul-27 00:07N 54°16' E 004°03'915.5
2014-Jul-26 23:33N 54°13' E 004°17'1915.4
2014-Jul-26 22:18N 54°07' E 004°48'1114.6
2014-Jul-26 21:33N 54°05' E 005°07'1514.5
2014-Jul-26 20:32N 54°07' E 005°32'3214.4
2014-Jul-26 18:19N 54°11' E 006°26'2715.6
2014-Jul-26 16:34N 54°12' E 007°13'1615.9
2014-Jul-26 15:34N 54°10' E 007°40'1616.1
2014-Jul-26 14:33N 54°02' E 008°03'1616.1
2014-Jul-26 13:33N 53°59' E 008°30'1313.4
2014-Jul-26 12:33N 53°51' E 008°49'1312.7
2014-Jul-26 11:33N 53°53' E 009°10'8 8.1
2014-Jul-26 10:33N 53°49' E 009°22'1111.5
2014-Jul-26 09:33N 53°39' E 009°31'0 0.0
2014-Jul-25 07:28N 53°39' E 009°31'4 4.5
2014-Jul-25 06:33N 53°43' E 009°28'1111.3
2014-Jul-25 05:33N 53°52' E 009°17'1010.3
2014-Jul-25 04:34N 53°51' E 008°59'9 9.3
2014-Jul-25 03:33N 53°52' E 008°44'10 9.9
2014-Jul-25 02:33N 53°58' E 008°31'1211.5
2014-Jul-25 01:33N 53°60' E 008°11'4 4.3
2014-Jul-25 00:33N 54°03' E 008°06'2 2.1
2014-Jul-24 23:28N 54°03' E 008°10'0 0.0
2014-Jul-24 22:31N 54°03' E 008°10'0 0.1
2014-Jul-24 21:31N 54°03' E 008°10'0 0.1
2014-Jul-24 20:31N 54°03' E 008°10'0 0.0
2014-Jul-24 19:31N 54°03' E 008°10'0 0.1
2014-Jul-24 18:33N 54°03' E 008°10'0 0.1
2014-Jul-24 17:33N 54°03' E 008°10'0 0.0
2014-Jul-24 16:30N 54°03' E 008°10'0 0.0
2014-Jul-24 15:33N 54°03' E 008°10'0 0.0
2014-Jul-24 14:33N 54°03' E 008°10'0 0.0
2014-Jul-24 13:33N 54°03' E 008°10'0 0.0
2014-Jul-24 12:33N 54°03' E 008°10'0 0.0
2014-Jul-24 11:33N 54°03' E 008°10'0 0.0
2014-Jul-24 10:33N 54°03' E 008°10'0 0.1
2014-Jul-24 09:12N 54°03' E 008°10'0 0.0
2014-Jul-24 08:33N 54°03' E 008°10'0 0.0
2014-Jul-24 07:27N 54°03' E 008°10'0 0.1
2014-Jul-24 06:30N 54°03' E 008°10'0 0.0
2014-Jul-24 05:33N 54°03' E 008°10'0 0.1
2014-Jul-24 04:33N 54°03' E 008°10'0 0.0
2014-Jul-24 03:33N 54°03' E 008°10'0 0.0
2014-Jul-24 02:32N 54°03' E 008°10'0 0.0
2014-Jul-24 01:32N 54°03' E 008°10'0 0.0
2014-Jul-24 00:32N 54°03' E 008°10'0 0.0
2014-Jul-23 23:32N 54°03' E 008°10'0 0.0
2014-Jul-23 22:32N 54°03' E 008°10'0 0.0
2014-Jul-23 21:32N 54°03' E 008°10'1 1.1
2014-Jul-23 20:34N 54°03' E 008°08'1211.8
2014-Jul-23 19:33N 54°05' E 007°49'1414.0
2014-Jul-23 18:33N 54°09' E 007°26'3114.4
2014-Jul-23 16:25N 54°08' E 006°33'1213.9
2014-Jul-23 15:34N 54°08' E 006°13'1413.5
2014-Jul-23 14:31N 54°06' E 005°49'1313.1
2014-Jul-23 13:34N 54°04' E 005°28'1312.9
2014-Jul-23 12:34N 54°02' E 005°06'1312.5
2014-Jul-23 11:33N 54°03' E 004°45'1312.8
2014-Jul-23 10:32N 54°09' E 004°25'1412.9
2014-Jul-23 09:29N 54°14' E 004°03'1212.5
2014-Jul-23 08:33N 54°18' E 003°45'1413.7
2014-Jul-23 07:33N 54°23' E 003°22'2013.9
2014-Jul-23 06:06N 54°30' E 002°50'1314.0
2014-Jul-23 05:09N 54°32' E 002°28'914.1
2014-Jul-23 04:32N 54°32' E 002°13'2814.2
2014-Jul-23 02:33N 54°35' E 001°25'1814.2
2014-Jul-23 01:16N 54°37' E 000°53'1714.1
2014-Jul-23 00:04N 54°38' E 000°24'714.0
2014-Jul-22 23:33N 54°38' E 000°12'1414.1
2014-Jul-22 22:33N 54°39' W 000°12'1413.7
2014-Jul-22 21:33N 54°40' W 000°36'1412.7
2014-Jul-22 20:28N 54°41' W 001°00'8 1.3
2014-Jul-22 14:24N 54°36' W 001°11'0 0.0
2014-Jul-22 10:12N 54°36' W 001°11'0 0.0
2014-Jul-22 09:24N 54°36' W 001°11'0 0.0
2014-Jul-22 08:24N 54°36' W 001°11'0 0.0
2014-Jul-22 05:18N 54°36' W 001°11'0 0.0
2014-Jul-21 16:12N 54°36' W 001°11'0 0.0
2014-Jul-21 13:33N 54°36' W 001°11'1 0.3
2014-Jul-21 11:33N 54°36' W 001°10'7 6.3
2014-Jul-21 10:29N 54°41' W 001°03'0 0.1
2014-Jul-21 09:32N 54°41' W 001°03'0 0.0
2014-Jul-21 08:29N 54°41' W 001°03'0 0.0
2014-Jul-21 07:29N 54°41' W 001°03'0 0.0
2014-Jul-21 06:25N 54°41' W 001°03'0 0.1
2014-Jul-21 05:29N 54°41' W 001°03'0 0.1
2014-Jul-21 04:32N 54°41' W 001°03'0 0.0
2014-Jul-21 03:32N 54°41' W 001°03'0 0.0
2014-Jul-21 02:32N 54°41' W 001°03'0 0.1
2014-Jul-21 01:32N 54°41' W 001°03'0 0.0
2014-Jul-21 00:29N 54°41' W 001°03'0 0.0
2014-Jul-20 23:31N 54°41' W 001°03'0 0.0
2014-Jul-20 22:31N 54°41' W 001°03'0 0.0
2014-Jul-20 21:32N 54°41' W 001°03'0 0.0
2014-Jul-20 20:32N 54°41' W 001°03'0 0.0
2014-Jul-20 19:32N 54°41' W 001°03'0 0.0
2014-Jul-20 18:32N 54°41' W 001°03'0 0.0
2014-Jul-20 16:20N 54°41' W 001°03'0 0.0
2014-Jul-20 15:25N 54°41' W 001°03'0 0.0
2014-Jul-20 14:22N 54°41' W 001°03'0 0.0
2014-Jul-20 13:13N 54°41' W 001°03'0 0.1
2014-Jul-20 12:31N 54°41' W 001°03'0 0.0
2014-Jul-20 11:25N 54°41' W 001°03'0 0.0
2014-Jul-20 10:32N 54°41' W 001°03'0 0.0
2014-Jul-20 09:32N 54°41' W 001°03'0 0.0
2014-Jul-20 08:29N 54°41' W 001°03'7 7.2
2014-Jul-20 07:33N 54°44' W 000°52'1111.6
2014-Jul-20 06:34N 54°48' W 000°34'1211.5
2014-Jul-20 05:33N 54°53' W 000°15'1211.6
2014-Jul-20 04:33N 54°58' E 000°03'1211.8
2014-Jul-20 03:33N 55°02' E 000°22'1211.7
2014-Jul-20 02:34N 55°07' E 000°40'1111.0
2014-Jul-20 01:33N 55°11' E 000°58'  
Track history (hours):
 
Tides and Currents Weather Stations Pressure Air Temp Water Temp Dewpoint Dewpoint Depression Visibility Wind Speed Wind Dir Waves Ship Positions

Coral Leaf

Last reported at 2014-Jul-30 00:33 UTC. Time now 2014-Jul-30 01:01 UTC.
Position N 57°55' E 011°38'.

Length 108 m; draft 6.6 m.

Type: Ship (hazmat cat D). MMSI: 244036000.

Date/timePositionNaut miles runAvg speedWind from/ knotsBaromVisibWave heightAir tempDewpointWater temp
2014-Jul-30 00:33N 57°55' E 011°38'1010.1
2014-Jul-29 23:33N 57°51' E 011°22'1413.8
2014-Jul-29 22:33N 57°52' E 010°56'1414.3
2014-Jul-29 21:33N 57°52' E 010°29'1514.1
2014-Jul-29 20:29N 57°52' E 010°01'1313.7
2014-Jul-29 19:34N 57°51' E 009°37'37413.8
2014-Jul-28 16:27N 54°53' W 000°17'1514.2
2014-Jul-28 15:23N 54°46' W 000°42'1113.7
2014-Jul-28 14:33N 54°42' W 000°59'9 9.0
2014-Jul-28 13:33N 54°36' W 001°11'0 0.0
2014-Jul-28 12:07N 54°36' W 001°11'0 0.0
2014-Jul-28 11:13N 54°36' W 001°11'0 0.0
2014-Jul-28 10:25N 54°36' W 001°11'0 0.0
2014-Jul-28 09:31N 54°36' W 001°11'0 0.0
2014-Jul-28 07:31N 54°36' W 001°11'3 0.1
2014-Jul-27 13:08N 54°38' W 001°09'711.1
2014-Jul-27 12:27N 54°40' W 000°57'1314.3
2014-Jul-27 11:33N 54°40' W 000°34'1414.3
2014-Jul-27 10:33N 54°39' W 000°10'1414.0
2014-Jul-27 09:33N 54°38' E 000°14'1413.6
2014-Jul-27 08:32N 54°37' E 000°38'8413.9
2014-Jul-27 02:32N 54°28' E 003°01'3815.8
2014-Jul-27 00:07N 54°16' E 004°03'915.5
2014-Jul-26 23:33N 54°13' E 004°17'1915.4
2014-Jul-26 22:18N 54°07' E 004°48'1114.6
2014-Jul-26 21:33N 54°05' E 005°07'1514.5
2014-Jul-26 20:32N 54°07' E 005°32'3214.4
2014-Jul-26 18:19N 54°11' E 006°26'2715.6
2014-Jul-26 16:34N 54°12' E 007°13'1615.9
2014-Jul-26 15:34N 54°10' E 007°40'1616.1
2014-Jul-26 14:33N 54°02' E 008°03'1616.1
2014-Jul-26 13:33N 53°59' E 008°30'1313.4
2014-Jul-26 12:33N 53°51' E 008°49'1312.7
2014-Jul-26 11:33N 53°53' E 009°10'8 8.1
2014-Jul-26 10:33N 53°49' E 009°22'1111.5
2014-Jul-26 09:33N 53°39' E 009°31'0 0.0
2014-Jul-25 07:28N 53°39' E 009°31'4 4.5
2014-Jul-25 06:33N 53°43' E 009°28'1111.3
2014-Jul-25 05:33N 53°52' E 009°17'1010.3
2014-Jul-25 04:34N 53°51' E 008°59'9 9.3
2014-Jul-25 03:33N 53°52' E 008°44'10 9.9
2014-Jul-25 02:33N 53°58' E 008°31'1211.5
2014-Jul-25 01:33N 53°60' E 008°11'4 4.3
2014-Jul-25 00:33N 54°03' E 008°06'2 2.1
2014-Jul-24 23:28N 54°03' E 008°10'0 0.0
2014-Jul-24 22:31N 54°03' E 008°10'0 0.1
2014-Jul-24 21:31N 54°03' E 008°10'0 0.1
2014-Jul-24 20:31N 54°03' E 008°10'0 0.0
2014-Jul-24 19:31N 54°03' E 008°10'0 0.1
2014-Jul-24 18:33N 54°03' E 008°10'0 0.1
2014-Jul-24 17:33N 54°03' E 008°10'0 0.0
2014-Jul-24 16:30N 54°03' E 008°10'0 0.0
2014-Jul-24 15:33N 54°03' E 008°10'0 0.0
2014-Jul-24 14:33N 54°03' E 008°10'0 0.0
2014-Jul-24 13:33N 54°03' E 008°10'0 0.0
2014-Jul-24 12:33N 54°03' E 008°10'0 0.0
2014-Jul-24 11:33N 54°03' E 008°10'0 0.0
2014-Jul-24 10:33N 54°03' E 008°10'0 0.1
2014-Jul-24 09:12N 54°03' E 008°10'0 0.0
2014-Jul-24 08:33N 54°03' E 008°10'0 0.0
2014-Jul-24 07:27N 54°03' E 008°10'0 0.1
2014-Jul-24 06:30N 54°03' E 008°10'0 0.0
2014-Jul-24 05:33N 54°03' E 008°10'0 0.1
2014-Jul-24 04:33N 54°03' E 008°10'0 0.0
2014-Jul-24 03:33N 54°03' E 008°10'0 0.0
2014-Jul-24 02:32N 54°03' E 008°10'0 0.0
2014-Jul-24 01:32N 54°03' E 008°10'0 0.0
2014-Jul-24 00:32N 54°03' E 008°10'0 0.0
2014-Jul-23 23:32N 54°03' E 008°10'0 0.0
2014-Jul-23 22:32N 54°03' E 008°10'0 0.0
2014-Jul-23 21:32N 54°03' E 008°10'1 1.1
2014-Jul-23 20:34N 54°03' E 008°08'1211.8
2014-Jul-23 19:33N 54°05' E 007°49'1414.0
2014-Jul-23 18:33N 54°09' E 007°26'3114.4
2014-Jul-23 16:25N 54°08' E 006°33'1213.9
2014-Jul-23 15:34N 54°08' E 006°13'1413.5
2014-Jul-23 14:31N 54°06' E 005°49'1313.1
2014-Jul-23 13:34N 54°04' E 005°28'1312.9
2014-Jul-23 12:34N 54°02' E 005°06'1312.5
2014-Jul-23 11:33N 54°03' E 004°45'1312.8
2014-Jul-23 10:32N 54°09' E 004°25'1412.9
2014-Jul-23 09:29N 54°14' E 004°03'1212.5
2014-Jul-23 08:33N 54°18' E 003°45'1413.7
2014-Jul-23 07:33N 54°23' E 003°22'2013.9
2014-Jul-23 06:06N 54°30' E 002°50'1314.0
2014-Jul-23 05:09N 54°32' E 002°28'914.1
2014-Jul-23 04:32N 54°32' E 002°13'2814.2
2014-Jul-23 02:33N 54°35' E 001°25'1814.2
2014-Jul-23 01:16N 54°37' E 000°53'1714.1
2014-Jul-23 00:04N 54°38' E 000°24'714.0
2014-Jul-22 23:33N 54°38' E 000°12'1414.1
2014-Jul-22 22:33N 54°39' W 000°12'1413.7
2014-Jul-22 21:33N 54°40' W 000°36'1412.7
2014-Jul-22 20:28N 54°41' W 001°00'8 1.3
2014-Jul-22 14:24N 54°36' W 001°11'0 0.0
2014-Jul-22 10:12N 54°36' W 001°11'0 0.0
2014-Jul-22 09:24N 54°36' W 001°11'0 0.0
2014-Jul-22 08:24N 54°36' W 001°11'0 0.0
2014-Jul-22 05:18N 54°36' W 001°11'0 0.0
2014-Jul-21 16:12N 54°36' W 001°11'0 0.0
2014-Jul-21 13:33N 54°36' W 001°11'1 0.3
2014-Jul-21 11:33N 54°36' W 001°10'7 6.3
2014-Jul-21 10:29N 54°41' W 001°03'0 0.1
2014-Jul-21 09:32N 54°41' W 001°03'0 0.0
2014-Jul-21 08:29N 54°41' W 001°03'0 0.0
2014-Jul-21 07:29N 54°41' W 001°03'0 0.0
2014-Jul-21 06:25N 54°41' W 001°03'0 0.1
2014-Jul-21 05:29N 54°41' W 001°03'0 0.1
2014-Jul-21 04:32N 54°41' W 001°03'0 0.0
2014-Jul-21 03:32N 54°41' W 001°03'0 0.0
2014-Jul-21 02:32N 54°41' W 001°03'0 0.1
2014-Jul-21 01:32N 54°41' W 001°03'0 0.0
2014-Jul-21 00:29N 54°41' W 001°03'0 0.0
2014-Jul-20 23:31N 54°41' W 001°03'0 0.0
2014-Jul-20 22:31N 54°41' W 001°03'0 0.0
2014-Jul-20 21:32N 54°41' W 001°03'0 0.0
2014-Jul-20 20:32N 54°41' W 001°03'0 0.0
2014-Jul-20 19:32N 54°41' W 001°03'0 0.0
2014-Jul-20 18:32N 54°41' W 001°03'0 0.0
2014-Jul-20 16:20N 54°41' W 001°03'0 0.0
2014-Jul-20 15:25N 54°41' W 001°03'0 0.0
2014-Jul-20 14:22N 54°41' W 001°03'0 0.0
2014-Jul-20 13:13N 54°41' W 001°03'0 0.1
2014-Jul-20 12:31N 54°41' W 001°03'0 0.0
2014-Jul-20 11:25N 54°41' W 001°03'0 0.0
2014-Jul-20 10:32N 54°41' W 001°03'0 0.0
2014-Jul-20 09:32N 54°41' W 001°03'0 0.0
2014-Jul-20 08:29N 54°41' W 001°03'7 7.2
2014-Jul-20 07:33N 54°44' W 000°52'1111.6
2014-Jul-20 06:34N 54°48' W 000°34'1211.5
2014-Jul-20 05:33N 54°53' W 000°15'1211.6
2014-Jul-20 04:33N 54°58' E 000°03'1211.8
2014-Jul-20 03:33N 55°02' E 000°22'1211.7
2014-Jul-20 02:34N 55°07' E 000°40'1111.0
2014-Jul-20 01:33N 55°11' E 000°58'  

Dump ship's entire track history